Accueil
METAR-TAF:

METAR-TAF

Aéroports :

Fort Yukon, Alaska, États-Unis

latitude: 66-34N, longitude: 145-16W, altitude: 433 m

Observation

Le bulletin a été fait il y a 11 minutes, à 04:56 UTC
Vent 3 kt de nord-est
Température -31°C
Humidité 75%
Pression 1006 hPa
Visibilité: 16.1 km
Ciel clair

METAR: PFYU 080456Z AUTO 04003KT 10SM CLR M31/M34 A2971 RMK AO2 SLPNO T13111339 FZRANO

Heure: 20:07 (05:07 UTC)


TAF: absent

Observations et prévisions météorologiques de plus de 4000 aéroports (messages METAR et TAF).

Les stations disponibles sont représentées par des disques jaunes et rouges sur la carte.

Passer la souris dessus pour voir le nom de la station.

Cliquer dessus pour voir les observations et prévisions météorologiques.

Pour changer de carte: cliquez sur les boutons verts avec une croix noire pour zoomer, sur le bouton vert avec un tiret pour effectuer un zoom arrière, ou sur les flèches vertes pour les cartes adjacentes.


METAR-TAF: